createdAt,value
2022-10-16T00:00:15.867Z,98043.00
2022-10-16T00:02:50.961Z,98061.00
2022-10-16T00:09:19.200Z,98047.00
2022-10-16T00:12:38.504Z,98047.00
2022-10-16T00:19:08.806Z,98050.00
2022-10-16T00:21:43.746Z,98044.00
2022-10-16T00:24:18.438Z,98045.00
2022-10-16T00:26:53.542Z,98041.00
2022-10-16T00:29:27.769Z,98050.00
2022-10-16T00:32:02.996Z,98057.00
2022-10-16T00:34:43.765Z,98063.00
2022-10-16T00:37:22.218Z,98063.00
2022-10-16T00:47:48.763Z,98057.00
2022-10-16T00:50:31.241Z,98065.00
2022-10-16T00:57:02.708Z,98070.00
2022-10-16T00:59:41.429Z,98056.00
2022-10-16T01:10:22.707Z,98060.00
2022-10-16T01:13:00.549Z,98062.00
2022-10-16T01:18:50.519Z,98074.00
2022-10-16T01:21:28.645Z,98077.00
2022-10-16T01:24:13.658Z,98079.00
2022-10-16T01:27:12.571Z,98080.00
2022-10-16T01:29:52.987Z,98084.00
2022-10-16T01:32:34.990Z,98082.00
2022-10-16T01:35:13.128Z,98080.00
2022-10-16T01:37:50.758Z,98075.00
2022-10-16T01:41:37.217Z,98064.00
2022-10-16T01:44:21.988Z,98056.00
2022-10-16T01:47:21.480Z,98065.00
2022-10-16T01:57:49.891Z,98067.00
2022-10-16T02:00:26.710Z,98066.00
2022-10-16T02:03:06.925Z,98058.00
2022-10-16T02:06:22.226Z,98054.00
2022-10-16T02:08:59.373Z,98060.00
2022-10-16T02:11:36.033Z,98052.00
2022-10-16T02:14:36.430Z,98054.00
2022-10-16T02:17:51.961Z,98063.00
2022-10-16T02:20:36.865Z,98054.00
2022-10-16T02:23:38.499Z,98051.00
2022-10-16T02:26:18.008Z,98047.00
2022-10-16T02:28:57.396Z,98040.00
2022-10-16T02:31:35.755Z,98069.00
2022-10-16T02:34:18.811Z,98065.00
2022-10-16T02:36:54.067Z,98072.00
2022-10-16T02:58:06.339Z,98070.00
2022-10-16T03:08:30.990Z,98078.00
2022-10-16T03:14:51.619Z,98060.00
2022-10-16T03:17:26.628Z,98062.00
2022-10-16T03:20:01.164Z,98058.00
2022-10-16T03:22:35.724Z,98069.00
2022-10-16T03:29:04.465Z,98062.00
2022-10-16T03:31:40.544Z,98061.00
2022-10-16T03:34:16.503Z,98038.00
2022-10-16T03:37:23.005Z,98034.00
2022-10-16T03:40:05.157Z,98062.00
2022-10-16T03:42:58.433Z,98062.00
2022-10-16T03:45:32.942Z,98066.00
2022-10-16T03:48:08.847Z,98068.00
2022-10-16T03:50:43.947Z,98078.00
2022-10-16T03:53:20.114Z,98071.00
2022-10-16T03:56:10.858Z,98077.00
2022-10-16T03:58:46.251Z,98083.00
2022-10-16T04:05:44.723Z,98085.00
2022-10-16T04:08:28.092Z,98072.00
2022-10-16T04:11:15.316Z,98080.00
2022-10-16T04:13:56.890Z,98076.00
2022-10-16T04:20:19.959Z,98088.00
2022-10-16T04:23:10.894Z,98082.00
2022-10-16T04:29:34.501Z,98078.00
2022-10-16T04:32:11.051Z,98087.00
2022-10-16T04:34:45.440Z,98083.00
2022-10-16T04:37:33.886Z,98082.00
2022-10-16T04:40:41.026Z,98079.00
2022-10-16T04:43:15.455Z,98100.00
2022-10-16T04:45:52.387Z,98084.00
2022-10-16T04:48:27.099Z,98086.00
2022-10-16T04:51:01.617Z,98096.00
2022-10-16T04:53:35.842Z,98078.00
2022-10-16T05:03:52.896Z,98095.00
2022-10-16T05:06:33.139Z,98095.00
2022-10-16T05:09:09.445Z,98103.00
2022-10-16T05:12:38.514Z,98096.00
2022-10-16T05:15:13.342Z,98118.00
2022-10-16T05:17:47.708Z,98111.00
2022-10-16T05:20:23.827Z,98104.00
2022-10-16T05:22:57.987Z,98111.00
2022-10-16T05:25:32.386Z,98112.00
2022-10-16T05:28:06.883Z,98096.00
2022-10-16T05:30:41.143Z,98105.00
2022-10-16T05:33:15.338Z,98101.00
2022-10-16T05:35:51.584Z,98106.00
2022-10-16T05:38:25.799Z,98113.00
2022-10-16T05:41:00.037Z,98120.00
2022-10-16T05:47:28.508Z,98124.00
2022-10-16T05:54:31.335Z,98128.00
2022-10-16T05:57:08.532Z,98131.00
2022-10-16T05:59:43.816Z,98129.00
2022-10-16T06:02:18.127Z,98140.00
2022-10-16T06:04:54.210Z,98140.00
2022-10-16T06:07:28.975Z,98125.00
2022-10-16T06:10:11.536Z,98130.00
2022-10-16T06:12:45.819Z,98154.00
2022-10-16T06:15:51.203Z,98141.00
2022-10-16T06:22:19.824Z,98158.00
2022-10-16T06:24:55.839Z,98159.00
2022-10-16T06:27:33.846Z,98162.00
2022-10-16T06:30:19.637Z,98146.00
2022-10-16T06:36:09.978Z,98167.00
2022-10-16T06:38:52.824Z,98166.00
2022-10-16T06:41:46.360Z,98184.00
2022-10-16T06:44:34.924Z,98176.00
2022-10-16T06:47:10.182Z,98180.00
2022-10-16T06:55:45.652Z,98212.00
2022-10-16T06:58:23.902Z,98202.00
2022-10-16T07:01:15.516Z,98194.00
2022-10-16T07:03:51.930Z,98210.00
2022-10-16T07:12:10.420Z,98198.00
2022-10-16T07:14:45.521Z,98207.00
2022-10-16T07:17:24.649Z,98223.00
2022-10-16T07:20:03.119Z,98199.00
2022-10-16T07:22:46.025Z,98210.00
2022-10-16T07:25:21.839Z,98222.00
2022-10-16T07:28:41.398Z,98232.00
2022-10-16T07:35:07.598Z,98249.00
2022-10-16T07:38:37.299Z,98254.00
2022-10-16T07:44:59.349Z,98269.00
2022-10-16T07:47:40.113Z,98261.00
2022-10-16T07:50:18.839Z,98283.00
2022-10-16T07:52:57.690Z,98291.00
2022-10-16T07:55:33.767Z,98285.00
2022-10-16T07:58:08.586Z,98275.00
2022-10-16T08:01:26.835Z,98286.00
2022-10-16T08:04:01.812Z,98285.00
2022-10-16T08:10:38.859Z,98283.00
2022-10-16T08:13:33.726Z,98297.00
2022-10-16T08:16:11.030Z,98304.00
2022-10-16T08:18:46.312Z,98299.00
2022-10-16T08:21:24.553Z,98297.00
2022-10-16T08:23:58.930Z,98282.00
2022-10-16T08:26:35.378Z,98301.00
2022-10-16T08:33:22.165Z,98316.00
2022-10-16T08:36:21.146Z,98316.00
2022-10-16T08:43:40.126Z,98319.00
2022-10-16T08:46:27.025Z,98315.00
2022-10-16T08:49:02.963Z,98314.00
2022-10-16T08:51:43.304Z,98323.00
2022-10-16T08:54:26.382Z,98319.00
2022-10-16T08:57:11.592Z,98331.00
2022-10-16T08:59:51.727Z,98338.00
2022-10-16T09:02:33.622Z,98340.00
2022-10-16T09:05:27.583Z,98333.00
2022-10-16T09:08:10.859Z,98351.00
2022-10-16T09:10:53.187Z,98344.00
2022-10-16T09:13:30.078Z,98339.00
2022-10-16T09:16:16.476Z,98339.00
2022-10-16T09:18:59.034Z,98354.00
2022-10-16T09:21:40.770Z,98342.00
2022-10-16T09:24:56.637Z,98357.00
2022-10-16T09:27:32.035Z,98353.00
2022-10-16T09:30:15.389Z,98366.00
2022-10-16T09:32:54.057Z,98362.00
2022-10-16T09:35:39.334Z,98362.00
2022-10-16T09:38:25.956Z,98358.00
2022-10-16T09:41:03.679Z,98370.00
2022-10-16T09:43:42.580Z,98376.00
2022-10-16T09:46:36.758Z,98365.00
2022-10-16T09:53:20.962Z,98366.00
2022-10-16T09:55:58.742Z,98364.00
2022-10-16T09:58:35.298Z,98371.00
2022-10-16T10:04:58.475Z,98378.00
2022-10-16T10:07:36.190Z,98373.00
2022-10-16T10:14:17.610Z,98374.00
2022-10-16T10:16:53.604Z,98372.00
2022-10-16T10:19:41.741Z,98376.00
2022-10-16T10:22:22.246Z,98373.00
2022-10-16T10:25:16.041Z,98358.00
2022-10-16T10:28:05.457Z,98368.00
2022-10-16T10:34:56.575Z,98370.00
2022-10-16T10:38:10.591Z,98366.00
2022-10-16T10:40:52.659Z,98374.00
2022-10-16T10:43:45.722Z,98350.00
2022-10-16T10:46:23.473Z,98362.00
2022-10-16T10:49:18.180Z,98358.00
2022-10-16T10:52:51.416Z,98370.00
2022-10-16T10:55:36.715Z,98385.00
2022-10-16T10:58:35.114Z,98368.00
2022-10-16T11:01:14.951Z,98368.00
2022-10-16T11:04:10.461Z,98370.00
2022-10-16T11:07:38.354Z,98378.00
2022-10-16T11:11:12.848Z,98374.00
2022-10-16T11:13:56.975Z,98371.00
2022-10-16T11:17:27.420Z,98377.00
2022-10-16T11:20:08.023Z,98372.00
2022-10-16T11:22:46.539Z,98369.00
2022-10-16T11:25:24.402Z,98364.00
2022-10-16T11:28:04.617Z,98359.00
2022-10-16T11:31:13.114Z,98363.00
2022-10-16T11:48:05.522Z,98357.00
2022-10-16T11:50:43.186Z,98357.00
2022-10-16T11:57:15.953Z,98353.00
2022-10-16T11:59:54.658Z,98350.00
2022-10-16T12:02:35.379Z,98338.00
2022-10-16T12:13:00.585Z,98365.00
2022-10-16T12:18:34.969Z,98342.00
2022-10-16T12:24:47.922Z,98339.00
2022-10-16T12:27:32.713Z,98344.00
2022-10-16T12:34:07.396Z,98335.00
2022-10-16T12:36:46.254Z,98349.00
2022-10-16T12:39:24.708Z,98351.00
2022-10-16T12:42:06.650Z,98350.00
2022-10-16T12:44:45.683Z,98360.00
2022-10-16T12:47:50.093Z,98349.00
2022-10-16T12:50:32.985Z,98348.00
2022-10-16T12:53:20.978Z,98349.00
2022-10-16T12:56:17.579Z,98367.00
2022-10-16T13:03:25.303Z,98357.00
2022-10-16T13:14:11.653Z,98358.00
2022-10-16T13:20:28.456Z,98371.00
2022-10-16T13:23:15.718Z,98373.00
2022-10-16T13:32:34.228Z,98363.00
2022-10-16T13:36:10.421Z,98359.00
2022-10-16T14:12:15.335Z,98367.00
2022-10-16T14:22:44.001Z,98354.00
2022-10-16T14:29:23.486Z,98378.00
2022-10-16T14:36:08.055Z,98375.00
2022-10-16T14:42:38.014Z,98382.00
2022-10-16T14:49:31.484Z,98384.00
2022-10-16T14:56:00.124Z,98383.00
2022-10-16T15:02:33.638Z,98389.00
2022-10-16T15:23:40.930Z,98400.00
2022-10-16T15:26:15.594Z,98387.00
2022-10-16T15:29:39.484Z,98395.00
2022-10-16T15:40:32.471Z,98398.00
2022-10-16T15:46:35.539Z,98401.00
2022-10-16T15:49:16.294Z,98409.00
2022-10-16T15:52:05.346Z,98405.00
2022-10-16T15:54:49.265Z,98399.00
2022-10-16T15:57:47.532Z,98412.00
2022-10-16T16:00:43.482Z,98413.00
2022-10-16T16:04:10.803Z,98412.00
2022-10-16T16:10:14.833Z,98407.00
2022-10-16T16:13:17.418Z,98409.00
2022-10-16T16:16:24.885Z,98400.00
2022-10-16T16:19:10.614Z,98410.00
2022-10-16T16:25:43.586Z,98407.00
2022-10-16T16:32:54.160Z,98418.00
2022-10-16T16:36:46.398Z,98420.00
2022-10-16T16:43:38.776Z,98430.00
2022-10-16T16:50:00.624Z,98418.00
2022-10-16T16:56:39.764Z,98420.00
2022-10-16T17:07:07.851Z,98449.00
2022-10-16T17:09:47.996Z,98460.00
2022-10-16T17:12:23.299Z,98466.00
2022-10-16T17:14:58.436Z,98461.00
2022-10-16T17:17:32.859Z,98454.00
2022-10-16T17:20:10.146Z,98456.00
2022-10-16T17:26:41.628Z,98453.00
2022-10-16T17:29:27.749Z,98460.00
2022-10-16T17:43:54.325Z,98455.00
2022-10-16T17:50:17.156Z,98473.00
2022-10-16T17:53:49.811Z,98477.00
2022-10-16T18:04:09.890Z,98479.00
2022-10-16T18:06:57.655Z,98491.00
2022-10-16T18:13:27.155Z,98494.00
2022-10-16T18:17:06.975Z,98504.00
2022-10-16T18:20:13.636Z,98502.00
2022-10-16T18:23:09.667Z,98508.00
2022-10-16T18:25:51.351Z,98513.00
2022-10-16T18:28:54.548Z,98507.00
2022-10-16T18:31:36.751Z,98505.00
2022-10-16T18:38:09.026Z,98523.00
2022-10-16T18:41:11.790Z,98522.00
2022-10-16T18:44:34.563Z,98523.00
2022-10-16T18:50:12.025Z,98515.00
2022-10-16T18:52:49.411Z,98521.00
2022-10-16T18:55:30.681Z,98515.00
2022-10-16T18:58:13.207Z,98514.00
2022-10-16T19:01:07.975Z,98517.00
2022-10-16T19:04:18.470Z,98518.00
2022-10-16T19:06:55.532Z,98514.00
2022-10-16T19:09:30.068Z,98507.00
2022-10-16T19:12:07.697Z,98512.00
2022-10-16T19:14:43.175Z,98521.00
2022-10-16T19:17:33.778Z,98527.00
2022-10-16T19:20:24.712Z,98534.00
2022-10-16T19:23:09.791Z,98540.00
2022-10-16T19:25:44.561Z,98528.00
2022-10-16T19:28:21.498Z,98536.00
2022-10-16T19:30:56.517Z,98539.00
2022-10-16T19:33:48.215Z,98540.00
2022-10-16T19:36:37.183Z,98556.00
2022-10-16T19:39:15.289Z,98538.00
2022-10-16T19:41:51.667Z,98543.00
2022-10-16T19:44:31.542Z,98543.00
2022-10-16T19:47:06.858Z,98542.00
2022-10-16T19:49:43.980Z,98548.00
2022-10-16T19:52:33.753Z,98564.00
2022-10-16T19:55:10.183Z,98570.00
2022-10-16T19:57:48.570Z,98560.00
2022-10-16T20:00:27.318Z,98554.00
2022-10-16T20:03:10.080Z,98569.00
2022-10-16T20:05:56.960Z,98545.00
2022-10-16T20:08:31.905Z,98562.00
2022-10-16T20:11:12.096Z,98548.00
2022-10-16T20:16:59.610Z,98559.00
2022-10-16T20:19:34.865Z,98564.00
2022-10-16T20:22:11.703Z,98567.00
2022-10-16T20:24:46.859Z,98561.00
2022-10-16T20:27:22.251Z,98568.00
2022-10-16T20:29:58.202Z,98594.00
2022-10-16T20:33:03.626Z,98592.00
2022-10-16T20:35:44.089Z,98597.00
2022-10-16T20:38:32.600Z,98591.00
2022-10-16T20:52:20.237Z,98622.00
2022-10-16T20:55:26.487Z,98619.00
2022-10-16T20:58:03.791Z,98622.00
2022-10-16T21:00:42.967Z,98627.00
2022-10-16T21:03:18.291Z,98630.00
2022-10-16T21:06:00.098Z,98627.00
2022-10-16T21:08:40.479Z,98637.00
2022-10-16T21:11:40.302Z,98626.00
2022-10-16T21:14:15.930Z,98632.00
2022-10-16T21:17:10.463Z,98632.00
2022-10-16T21:20:10.844Z,98646.00
2022-10-16T21:23:09.938Z,98649.00
2022-10-16T21:26:28.192Z,98646.00
2022-10-16T21:29:07.139Z,98635.00
2022-10-16T21:31:41.589Z,98638.00
2022-10-16T21:34:17.022Z,98655.00
2022-10-16T21:36:53.260Z,98651.00
2022-10-16T21:39:29.242Z,98633.00
2022-10-16T21:42:30.327Z,98651.00
2022-10-16T21:45:08.697Z,98646.00
2022-10-16T21:48:39.011Z,98644.00
2022-10-16T21:55:16.770Z,98648.00
2022-10-16T21:57:54.089Z,98649.00
2022-10-16T22:00:34.326Z,98655.00
2022-10-16T22:03:14.768Z,98648.00
2022-10-16T22:05:50.753Z,98639.00
2022-10-16T22:08:28.713Z,98643.00
2022-10-16T22:11:12.944Z,98652.00
2022-10-16T22:14:32.550Z,98648.00
2022-10-16T22:17:13.264Z,98643.00
2022-10-16T22:19:48.733Z,98637.00
2022-10-16T22:22:23.934Z,98634.00
2022-10-16T22:25:04.838Z,98654.00
2022-10-16T22:27:41.323Z,98654.00
2022-10-16T22:30:16.062Z,98650.00
2022-10-16T22:33:07.496Z,98635.00
2022-10-16T22:35:43.766Z,98625.00
2022-10-16T22:38:23.003Z,98634.00
2022-10-16T22:41:05.326Z,98641.00
2022-10-16T22:43:42.943Z,98637.00
2022-10-16T22:46:24.546Z,98626.00
2022-10-16T22:49:27.058Z,98637.00
2022-10-16T22:52:18.047Z,98646.00
2022-10-16T22:55:11.882Z,98638.00
2022-10-16T22:57:48.103Z,98654.00
2022-10-16T23:00:46.338Z,98654.00
2022-10-16T23:03:22.776Z,98652.00
2022-10-16T23:06:25.390Z,98650.00
2022-10-16T23:09:43.100Z,98657.00
2022-10-16T23:12:29.973Z,98640.00
2022-10-16T23:15:16.554Z,98649.00
2022-10-16T23:17:52.889Z,98661.00
2022-10-16T23:20:28.282Z,98660.00
2022-10-16T23:23:21.634Z,98661.00
2022-10-16T23:25:58.733Z,98641.00
2022-10-16T23:28:34.337Z,98653.00
2022-10-16T23:31:13.276Z,98674.00
2022-10-16T23:33:47.979Z,98659.00
2022-10-16T23:36:53.403Z,98667.00
2022-10-16T23:40:08.283Z,98663.00
2022-10-16T23:43:31.710Z,98676.00
2022-10-16T23:46:12.459Z,98669.00
2022-10-16T23:48:47.606Z,98670.00
2022-10-16T23:51:47.867Z,98687.00
2022-10-16T23:54:29.797Z,98683.00
2022-10-16T23:57:38.921Z,98677.00
